Terminal Aerodrome Forecast
Issued by NWS

Home | Current Version | Previous Version | Text Only | Print | Product List | Glossary On
Versions: 1 2 3 4 5 6 7 8 9 10 11 12 13
731
FTUS41 KPBZ 261727
TAFZZV
TAF
KZZV 261727Z 2618/2718 21010KT P6SM VCSH SCT030 BKN040
      TEMPO 2620/2622 BKN025
     FM262300 22005KT P6SM BKN100
     FM270600 20002KT 5SM BR BKN250
     FM271300 23008KT P6SM SCT050=

USA.gov is the U.S. government's official web portal to all federal, state and local government web resources and services.